sensor_id;sensor_type;location;lat;lon;timestamp;P1;durP1;ratioP1;P2;durP2;ratioP2
10967;SDS011;5536;49.602;10.980;2023-11-19T00:00:18;2.30;;;2.10;;
10967;SDS011;5536;49.602;10.980;2023-11-19T00:02:45;5.93;;;1.80;;
10967;SDS011;5536;49.602;10.980;2023-11-19T00:05:14;2.00;;;1.90;;
10967;SDS011;5536;49.602;10.980;2023-11-19T00:07:41;1.97;;;1.87;;
10967;SDS011;5536;49.602;10.980;2023-11-19T00:10:08;1.97;;;1.87;;
10967;SDS011;5536;49.602;10.980;2023-11-19T00:12:36;1.77;;;1.67;;
10967;SDS011;5536;49.602;10.980;2023-11-19T00:15:05;1.63;;;1.53;;
10967;SDS011;5536;49.602;10.980;2023-11-19T00:17:36;2.57;;;2.10;;
10967;SDS011;5536;49.602;10.980;2023-11-19T00:20:04;2.27;;;1.77;;
10967;SDS011;5536;49.602;10.980;2023-11-19T00:22:34;1.93;;;1.83;;
10967;SDS011;5536;49.602;10.980;2023-11-19T00:25:01;1.90;;;1.80;;
10967;SDS011;5536;49.602;10.980;2023-11-19T00:27:28;2.30;;;1.87;;
10967;SDS011;5536;49.602;10.980;2023-11-19T00:29:55;2.17;;;1.97;;
10967;SDS011;5536;49.602;10.980;2023-11-19T00:32:23;1.50;;;1.40;;
10967;SDS011;5536;49.602;10.980;2023-11-19T00:34:50;1.87;;;1.77;;
10967;SDS011;5536;49.602;10.980;2023-11-19T00:37:17;1.87;;;1.77;;
10967;SDS011;5536;49.602;10.980;2023-11-19T00:39:45;2.47;;;2.00;;
10967;SDS011;5536;49.602;10.980;2023-11-19T00:42:12;1.80;;;1.70;;
10967;SDS011;5536;49.602;10.980;2023-11-19T00:44:39;2.03;;;1.83;;
10967;SDS011;5536;49.602;10.980;2023-11-19T00:47:07;2.07;;;1.90;;
10967;SDS011;5536;49.602;10.980;2023-11-19T00:49:34;5.63;;;1.80;;
10967;SDS011;5536;49.602;10.980;2023-11-19T00:52:01;1.80;;;1.70;;
10967;SDS011;5536;49.602;10.980;2023-11-19T00:54:28;2.00;;;1.80;;
10967;SDS011;5536;49.602;10.980;2023-11-19T00:56:57;1.80;;;1.70;;
10967;SDS011;5536;49.602;10.980;2023-11-19T00:59:23;1.93;;;1.83;;
10967;SDS011;5536;49.602;10.980;2023-11-19T01:01:50;1.90;;;1.80;;
10967;SDS011;5536;49.602;10.980;2023-11-19T01:04:17;2.00;;;1.90;;
10967;SDS011;5536;49.602;10.980;2023-11-19T01:06:45;1.87;;;1.77;;
10967;SDS011;5536;49.602;10.980;2023-11-19T01:09:12;1.67;;;1.57;;
10967;SDS011;5536;49.602;10.980;2023-11-19T01:11:39;2.90;;;2.10;;
10967;SDS011;5536;49.602;10.980;2023-11-19T01:14:07;1.80;;;1.70;;
10967;SDS011;5536;49.602;10.980;2023-11-19T01:16:34;2.23;;;2.03;;
10967;SDS011;5536;49.602;10.980;2023-11-19T01:19:01;1.80;;;1.70;;
10967;SDS011;5536;49.602;10.980;2023-11-19T01:21:30;3.87;;;2.20;;
10967;SDS011;5536;49.602;10.980;2023-11-19T01:23:57;2.13;;;2.03;;
10967;SDS011;5536;49.602;10.980;2023-11-19T01:26:24;2.07;;;1.97;;
10967;SDS011;5536;49.602;10.980;2023-11-19T01:28:51;2.60;;;1.90;;
10967;SDS011;5536;49.602;10.980;2023-11-19T01:31:19;2.67;;;2.47;;
10967;SDS011;5536;49.602;10.980;2023-11-19T01:33:46;4.10;;;2.03;;
10967;SDS011;5536;49.602;10.980;2023-11-19T01:36:13;2.40;;;1.90;;
10967;SDS011;5536;49.602;10.980;2023-11-19T01:38:40;2.03;;;1.80;;
10967;SDS011;5536;49.602;10.980;2023-11-19T01:41:07;2.07;;;1.97;;
10967;SDS011;5536;49.602;10.980;2023-11-19T01:43:35;1.90;;;1.80;;
10967;SDS011;5536;49.602;10.980;2023-11-19T01:46:02;1.97;;;1.83;;
10967;SDS011;5536;49.602;10.980;2023-11-19T01:48:32;2.83;;;2.37;;
10967;SDS011;5536;49.602;10.980;2023-11-19T01:51:02;2.60;;;2.40;;
10967;SDS011;5536;49.602;10.980;2023-11-19T01:53:30;2.53;;;2.33;;
10967;SDS011;5536;49.602;10.980;2023-11-19T01:55:58;3.00;;;2.37;;
10967;SDS011;5536;49.602;10.980;2023-11-19T01:58:25;2.07;;;1.97;;
10967;SDS011;5536;49.602;10.980;2023-11-19T02:00:54;2.47;;;2.37;;
10967;SDS011;5536;49.602;10.980;2023-11-19T02:03:21;1.93;;;1.83;;
10967;SDS011;5536;49.602;10.980;2023-11-19T02:05:52;1.90;;;1.80;;
10967;SDS011;5536;49.602;10.980;2023-11-19T02:08:19;2.30;;;2.10;;
10967;SDS011;5536;49.602;10.980;2023-11-19T02:10:46;2.10;;;2.00;;
10967;SDS011;5536;49.602;10.980;2023-11-19T02:13:13;1.83;;;1.73;;
10967;SDS011;5536;49.602;10.980;2023-11-19T02:15:41;2.30;;;2.13;;
10967;SDS011;5536;49.602;10.980;2023-11-19T02:18:18;2.57;;;2.10;;
10967;SDS011;5536;49.602;10.980;2023-11-19T02:20:46;2.37;;;2.17;;
10967;SDS011;5536;49.602;10.980;2023-11-19T02:23:16;2.00;;;1.90;;
10967;SDS011;5536;49.602;10.980;2023-11-19T02:25:45;2.20;;;2.10;;
10967;SDS011;5536;49.602;10.980;2023-11-19T02:28:19;1.63;;;1.63;;
10967;SDS011;5536;49.602;10.980;2023-11-19T02:30:48;2.33;;;2.13;;
10967;SDS011;5536;49.602;10.980;2023-11-19T02:33:15;2.20;;;2.10;;
10967;SDS011;5536;49.602;10.980;2023-11-19T02:35:42;2.17;;;2.07;;
10967;SDS011;5536;49.602;10.980;2023-11-19T02:38:09;2.73;;;2.47;;
10967;SDS011;5536;49.602;10.980;2023-11-19T02:40:36;1.80;;;1.70;;
10967;SDS011;5536;49.602;10.980;2023-11-19T02:43:03;2.57;;;2.37;;
10967;SDS011;5536;49.602;10.980;2023-11-19T02:45:32;2.30;;;2.10;;
10967;SDS011;5536;49.602;10.980;2023-11-19T02:47:59;2.00;;;1.90;;
10967;SDS011;5536;49.602;10.980;2023-11-19T02:50:27;1.83;;;1.73;;
10967;SDS011;5536;49.602;10.980;2023-11-19T02:52:54;2.60;;;2.40;;
10967;SDS011;5536;49.602;10.980;2023-11-19T02:55:22;3.33;;;2.10;;
10967;SDS011;5536;49.602;10.980;2023-11-19T02:57:50;1.87;;;1.77;;
10967;SDS011;5536;49.602;10.980;2023-11-19T03:00:18;1.50;;;1.50;;
10967;SDS011;5536;49.602;10.980;2023-11-19T03:02:50;2.10;;;2.00;;
10967;SDS011;5536;49.602;10.980;2023-11-19T03:05:24;1.90;;;1.80;;
10967;SDS011;5536;49.602;10.980;2023-11-19T03:07:54;3.47;;;2.07;;
10967;SDS011;5536;49.602;10.980;2023-11-19T03:10:21;1.93;;;1.83;;
10967;SDS011;5536;49.602;10.980;2023-11-19T03:12:49;1.97;;;1.87;;
10967;SDS011;5536;49.602;10.980;2023-11-19T03:15:16;2.10;;;1.90;;
10967;SDS011;5536;49.602;10.980;2023-11-19T03:17:43;2.30;;;2.10;;
10967;SDS011;5536;49.602;10.980;2023-11-19T03:20:12;1.67;;;1.57;;
10967;SDS011;5536;49.602;10.980;2023-11-19T03:22:42;1.97;;;1.87;;
10967;SDS011;5536;49.602;10.980;2023-11-19T03:25:09;5.03;;;2.13;;
10967;SDS011;5536;49.602;10.980;2023-11-19T03:27:36;2.30;;;2.10;;
10967;SDS011;5536;49.602;10.980;2023-11-19T03:30:07;1.70;;;1.60;;
10967;SDS011;5536;49.602;10.980;2023-11-19T03:32:35;1.80;;;1.70;;
10967;SDS011;5536;49.602;10.980;2023-11-19T03:35:04;2.67;;;2.00;;
10967;SDS011;5536;49.602;10.980;2023-11-19T03:37:33;2.20;;;2.10;;
10967;SDS011;5536;49.602;10.980;2023-11-19T03:40:00;2.00;;;1.90;;
10967;SDS011;5536;49.602;10.980;2023-11-19T03:42:28;2.00;;;1.90;;
10967;SDS011;5536;49.602;10.980;2023-11-19T03:44:55;2.43;;;2.27;;
10967;SDS011;5536;49.602;10.980;2023-11-19T03:47:23;2.33;;;2.17;;
10967;SDS011;5536;49.602;10.980;2023-11-19T03:49:50;2.83;;;2.30;;
10967;SDS011;5536;49.602;10.980;2023-11-19T03:52:17;2.40;;;2.30;;
10967;SDS011;5536;49.602;10.980;2023-11-19T03:54:46;2.37;;;2.20;;
10967;SDS011;5536;49.602;10.980;2023-11-19T03:57:13;4.63;;;2.60;;
10967;SDS011;5536;49.602;10.980;2023-11-19T03:59:40;2.43;;;2.10;;
10967;SDS011;5536;49.602;10.980;2023-11-19T04:02:07;2.80;;;2.60;;
10967;SDS011;5536;49.602;10.980;2023-11-19T04:04:35;2.73;;;2.53;;
10967;SDS011;5536;49.602;10.980;2023-11-19T04:07:03;2.10;;;2.00;;
10967;SDS011;5536;49.602;10.980;2023-11-19T04:09:30;2.80;;;2.60;;
10967;SDS011;5536;49.602;10.980;2023-11-19T04:11:59;2.43;;;2.23;;
10967;SDS011;5536;49.602;10.980;2023-11-19T04:14:26;2.63;;;2.43;;
10967;SDS011;5536;49.602;10.980;2023-11-19T04:16:53;2.40;;;2.20;;
10967;SDS011;5536;49.602;10.980;2023-11-19T04:19:21;3.13;;;2.60;;
10967;SDS011;5536;49.602;10.980;2023-11-19T04:21:48;2.70;;;2.50;;
10967;SDS011;5536;49.602;10.980;2023-11-19T04:24:15;5.73;;;2.60;;
10967;SDS011;5536;49.602;10.980;2023-11-19T04:26:51;2.57;;;2.37;;
10967;SDS011;5536;49.602;10.980;2023-11-19T04:29:19;2.40;;;2.13;;
10967;SDS011;5536;49.602;10.980;2023-11-19T04:31:46;3.10;;;2.80;;
10967;SDS011;5536;49.602;10.980;2023-11-19T04:34:13;2.87;;;2.67;;
10967;SDS011;5536;49.602;10.980;2023-11-19T04:36:41;2.93;;;2.73;;
10967;SDS011;5536;49.602;10.980;2023-11-19T04:39:09;5.27;;;2.70;;
10967;SDS011;5536;49.602;10.980;2023-11-19T04:41:45;2.30;;;2.20;;
10967;SDS011;5536;49.602;10.980;2023-11-19T04:44:12;2.83;;;2.63;;
10967;SDS011;5536;49.602;10.980;2023-11-19T04:46:42;3.63;;;2.57;;
10967;SDS011;5536;49.602;10.980;2023-11-19T04:49:09;4.20;;;2.80;;
10967;SDS011;5536;49.602;10.980;2023-11-19T04:51:39;3.30;;;3.00;;
10967;SDS011;5536;49.602;10.980;2023-11-19T04:54:07;2.80;;;2.60;;
10967;SDS011;5536;49.602;10.980;2023-11-19T04:56:35;3.30;;;2.57;;
10967;SDS011;5536;49.602;10.980;2023-11-19T04:59:02;2.60;;;2.40;;
10967;SDS011;5536;49.602;10.980;2023-11-19T05:01:30;3.43;;;2.83;;
10967;SDS011;5536;49.602;10.980;2023-11-19T05:03:59;2.80;;;2.60;;
10967;SDS011;5536;49.602;10.980;2023-11-19T05:06:27;2.70;;;2.50;;
10967;SDS011;5536;49.602;10.980;2023-11-19T05:08:54;3.13;;;2.93;;
10967;SDS011;5536;49.602;10.980;2023-11-19T05:11:21;2.47;;;2.33;;
10967;SDS011;5536;49.602;10.980;2023-11-19T05:13:48;3.90;;;3.20;;
10967;SDS011;5536;49.602;10.980;2023-11-19T05:16:16;3.50;;;3.20;;
10967;SDS011;5536;49.602;10.980;2023-11-19T05:18:43;2.83;;;2.63;;
10967;SDS011;5536;49.602;10.980;2023-11-19T05:21:12;8.53;;;3.40;;
10967;SDS011;5536;49.602;10.980;2023-11-19T05:23:39;3.13;;;2.93;;
10967;SDS011;5536;49.602;10.980;2023-11-19T05:26:07;3.40;;;2.70;;
10967;SDS011;5536;49.602;10.980;2023-11-19T05:28:33;3.30;;;3.00;;
10967;SDS011;5536;49.602;10.980;2023-11-19T05:31:01;3.83;;;3.33;;
10967;SDS011;5536;49.602;10.980;2023-11-19T05:33:28;3.57;;;3.27;;
10967;SDS011;5536;49.602;10.980;2023-11-19T05:35:55;3.57;;;3.10;;
10967;SDS011;5536;49.602;10.980;2023-11-19T05:38:23;3.53;;;3.23;;
10967;SDS011;5536;49.602;10.980;2023-11-19T05:40:59;3.73;;;3.37;;
10967;SDS011;5536;49.602;10.980;2023-11-19T05:43:28;3.70;;;3.10;;
10967;SDS011;5536;49.602;10.980;2023-11-19T05:45:55;2.80;;;2.60;;
10967;SDS011;5536;49.602;10.980;2023-11-19T05:48:25;3.50;;;3.20;;
10967;SDS011;5536;49.602;10.980;2023-11-19T05:50:54;3.60;;;3.03;;
10967;SDS011;5536;49.602;10.980;2023-11-19T05:53:26;2.90;;;2.70;;
10967;SDS011;5536;49.602;10.980;2023-11-19T05:56:03;5.73;;;4.03;;
10967;SDS011;5536;49.602;10.980;2023-11-19T05:58:33;4.97;;;3.20;;
10967;SDS011;5536;49.602;10.980;2023-11-19T06:01:01;3.03;;;2.77;;
10967;SDS011;5536;49.602;10.980;2023-11-19T06:03:28;9.77;;;3.33;;
10967;SDS011;5536;49.602;10.980;2023-11-19T06:05:56;3.67;;;3.30;;
10967;SDS011;5536;49.602;10.980;2023-11-19T06:08:23;3.50;;;3.23;;
10967;SDS011;5536;49.602;10.980;2023-11-19T06:10:53;3.33;;;3.03;;
10967;SDS011;5536;49.602;10.980;2023-11-19T06:13:21;3.33;;;3.13;;
10967;SDS011;5536;49.602;10.980;2023-11-19T06:15:49;4.00;;;3.60;;
10967;SDS011;5536;49.602;10.980;2023-11-19T06:18:16;4.17;;;3.17;;
10967;SDS011;5536;49.602;10.980;2023-11-19T06:20:45;4.20;;;3.40;;
10967;SDS011;5536;49.602;10.980;2023-11-19T06:23:12;4.07;;;3.47;;
10967;SDS011;5536;49.602;10.980;2023-11-19T06:25:39;4.93;;;3.83;;
10967;SDS011;5536;49.602;10.980;2023-11-19T06:28:07;4.50;;;4.10;;
10967;SDS011;5536;49.602;10.980;2023-11-19T06:30:34;3.90;;;3.50;;
10967;SDS011;5536;49.602;10.980;2023-11-19T06:33:01;4.90;;;3.93;;
10967;SDS011;5536;49.602;10.980;2023-11-19T06:35:29;3.27;;;3.07;;
10967;SDS011;5536;49.602;10.980;2023-11-19T06:38:01;3.70;;;3.33;;
10967;SDS011;5536;49.602;10.980;2023-11-19T06:40:29;4.07;;;3.30;;
10967;SDS011;5536;49.602;10.980;2023-11-19T06:42:56;3.80;;;3.50;;
10967;SDS011;5536;49.602;10.980;2023-11-19T06:45:24;4.30;;;3.87;;
10967;SDS011;5536;49.602;10.980;2023-11-19T06:47:51;11.87;;;7.63;;
10967;SDS011;5536;49.602;10.980;2023-11-19T06:50:18;10.97;;;7.73;;
10967;SDS011;5536;49.602;10.980;2023-11-19T06:52:45;34.93;;;22.00;;
10967;SDS011;5536;49.602;10.980;2023-11-19T06:55:13;31.97;;;17.60;;
10967;SDS011;5536;49.602;10.980;2023-11-19T06:57:40;18.17;;;10.23;;
10967;SDS011;5536;49.602;10.980;2023-11-19T07:00:07;9.73;;;8.07;;
10967;SDS011;5536;49.602;10.980;2023-11-19T07:02:37;7.60;;;6.60;;
10967;SDS011;5536;49.602;10.980;2023-11-19T07:05:05;7.87;;;4.40;;
10967;SDS011;5536;49.602;10.980;2023-11-19T07:07:33;5.77;;;4.07;;
10967;SDS011;5536;49.602;10.980;2023-11-19T07:10:00;4.60;;;3.70;;
10967;SDS011;5536;49.602;10.980;2023-11-19T07:12:29;3.60;;;3.30;;
10967;SDS011;5536;49.602;10.980;2023-11-19T07:14:56;2.70;;;2.50;;
10967;SDS011;5536;49.602;10.980;2023-11-19T07:17:27;2.70;;;2.53;;
10967;SDS011;5536;49.602;10.980;2023-11-19T07:19:55;2.87;;;2.67;;
10967;SDS011;5536;49.602;10.980;2023-11-19T07:22:24;2.43;;;2.23;;
10967;SDS011;5536;49.602;10.980;2023-11-19T07:24:51;3.37;;;2.63;;
10967;SDS011;5536;49.602;10.980;2023-11-19T07:27:18;3.07;;;2.87;;
10967;SDS011;5536;49.602;10.980;2023-11-19T07:29:54;3.57;;;2.83;;
10967;SDS011;5536;49.602;10.980;2023-11-19T07:32:22;4.00;;;2.80;;
10967;SDS011;5536;49.602;10.980;2023-11-19T07:34:49;2.70;;;2.50;;
10967;SDS011;5536;49.602;10.980;2023-11-19T07:37:18;3.30;;;3.00;;
10967;SDS011;5536;49.602;10.980;2023-11-19T07:39:45;2.43;;;2.33;;
10967;SDS011;5536;49.602;10.980;2023-11-19T07:42:11;2.73;;;2.40;;
10967;SDS011;5536;49.602;10.980;2023-11-19T07:44:39;3.83;;;3.47;;
10967;SDS011;5536;49.602;10.980;2023-11-19T07:47:06;3.77;;;3.43;;
10967;SDS011;5536;49.602;10.980;2023-11-19T07:49:33;5.67;;;4.90;;
10967;SDS011;5536;49.602;10.980;2023-11-19T07:52:03;2.37;;;2.17;;
10967;SDS011;5536;49.602;10.980;2023-11-19T07:54:32;3.43;;;2.80;;
10967;SDS011;5536;49.602;10.980;2023-11-19T07:56:59;1.37;;;1.27;;
10967;SDS011;5536;49.602;10.980;2023-11-19T07:59:26;1.80;;;1.00;;
10967;SDS011;5536;49.602;10.980;2023-11-19T08:01:53;2.10;;;0.93;;
10967;SDS011;5536;49.602;10.980;2023-11-19T08:04:20;1.10;;;1.10;;
10967;SDS011;5536;49.602;10.980;2023-11-19T08:06:47;0.60;;;0.60;;
10967;SDS011;5536;49.602;10.980;2023-11-19T08:09:17;0.60;;;0.60;;
10967;SDS011;5536;49.602;10.980;2023-11-19T08:11:48;0.80;;;0.80;;
10967;SDS011;5536;49.602;10.980;2023-11-19T08:14:16;0.70;;;0.70;;
10967;SDS011;5536;49.602;10.980;2023-11-19T08:16:43;1.13;;;0.80;;
10967;SDS011;5536;49.602;10.980;2023-11-19T08:19:10;0.50;;;0.50;;
10967;SDS011;5536;49.602;10.980;2023-11-19T08:21:37;2.77;;;0.93;;
10967;SDS011;5536;49.602;10.980;2023-11-19T08:24:04;0.67;;;0.67;;
10967;SDS011;5536;49.602;10.980;2023-11-19T08:26:31;0.93;;;0.93;;
10967;SDS011;5536;49.602;10.980;2023-11-19T08:29:00;0.90;;;0.90;;
10967;SDS011;5536;49.602;10.980;2023-11-19T08:31:27;0.83;;;0.83;;
10967;SDS011;5536;49.602;10.980;2023-11-19T08:33:54;0.60;;;0.60;;
10967;SDS011;5536;49.602;10.980;2023-11-19T08:36:21;0.50;;;0.50;;
10967;SDS011;5536;49.602;10.980;2023-11-19T08:38:47;0.40;;;0.40;;
10967;SDS011;5536;49.602;10.980;2023-11-19T08:41:15;3.30;;;1.00;;
10967;SDS011;5536;49.602;10.980;2023-11-19T08:43:43;0.60;;;0.60;;
10967;SDS011;5536;49.602;10.980;2023-11-19T08:46:11;0.50;;;0.50;;
10967;SDS011;5536;49.602;10.980;2023-11-19T08:48:38;1.00;;;1.00;;
10967;SDS011;5536;49.602;10.980;2023-11-19T08:51:05;1.20;;;1.10;;
10967;SDS011;5536;49.602;10.980;2023-11-19T08:53:33;0.70;;;0.70;;
10967;SDS011;5536;49.602;10.980;2023-11-19T08:56:00;0.47;;;0.43;;
10967;SDS011;5536;49.602;10.980;2023-11-19T08:58:28;0.70;;;0.70;;
10967;SDS011;5536;49.602;10.980;2023-11-19T09:00:55;1.00;;;1.00;;
10967;SDS011;5536;49.602;10.980;2023-11-19T09:03:24;1.47;;;1.10;;
10967;SDS011;5536;49.602;10.980;2023-11-19T09:05:52;0.97;;;0.80;;
10967;SDS011;5536;49.602;10.980;2023-11-19T09:08:19;0.90;;;0.90;;
10967;SDS011;5536;49.602;10.980;2023-11-19T09:10:46;0.63;;;0.63;;
10967;SDS011;5536;49.602;10.980;2023-11-19T09:13:13;0.97;;;0.93;;
10967;SDS011;5536;49.602;10.980;2023-11-19T09:15:40;0.90;;;0.90;;
10967;SDS011;5536;49.602;10.980;2023-11-19T09:18:10;0.63;;;0.63;;
10967;SDS011;5536;49.602;10.980;2023-11-19T09:20:46;0.60;;;0.60;;
10967;SDS011;5536;49.602;10.980;2023-11-19T09:23:22;1.40;;;0.87;;
10967;SDS011;5536;49.602;10.980;2023-11-19T09:25:50;1.30;;;0.90;;
10967;SDS011;5536;49.602;10.980;2023-11-19T09:28:17;0.63;;;0.63;;
10967;SDS011;5536;49.602;10.980;2023-11-19T09:30:44;0.57;;;0.57;;
10967;SDS011;5536;49.602;10.980;2023-11-19T09:33:11;2.43;;;0.57;;
10967;SDS011;5536;49.602;10.980;2023-11-19T09:35:40;0.73;;;0.73;;
10967;SDS011;5536;49.602;10.980;2023-11-19T09:38:07;0.60;;;0.60;;
10967;SDS011;5536;49.602;10.980;2023-11-19T09:40:34;1.50;;;0.77;;
10967;SDS011;5536;49.602;10.980;2023-11-19T09:43:03;2.67;;;1.03;;
10967;SDS011;5536;49.602;10.980;2023-11-19T09:45:31;0.60;;;0.60;;
10967;SDS011;5536;49.602;10.980;2023-11-19T09:48:04;1.10;;;0.77;;
10967;SDS011;5536;49.602;10.980;2023-11-19T09:50:35;1.37;;;0.70;;
10967;SDS011;5536;49.602;10.980;2023-11-19T09:53:04;0.97;;;0.97;;
10967;SDS011;5536;49.602;10.980;2023-11-19T09:55:33;1.53;;;1.43;;
10967;SDS011;5536;49.602;10.980;2023-11-19T09:58:00;1.03;;;1.03;;
10967;SDS011;5536;49.602;10.980;2023-11-19T10:00:28;2.67;;;1.40;;
10967;SDS011;5536;49.602;10.980;2023-11-19T10:02:57;0.90;;;0.90;;
10967;SDS011;5536;49.602;10.980;2023-11-19T10:05:25;0.67;;;0.67;;
10967;SDS011;5536;49.602;10.980;2023-11-19T10:07:53;0.60;;;0.60;;
10967;SDS011;5536;49.602;10.980;2023-11-19T10:10:23;1.93;;;1.73;;
10967;SDS011;5536;49.602;10.980;2023-11-19T10:12:50;0.40;;;0.40;;
10967;SDS011;5536;49.602;10.980;2023-11-19T10:15:20;0.70;;;0.70;;
10967;SDS011;5536;49.602;10.980;2023-11-19T10:17:49;1.30;;;1.10;;
10967;SDS011;5536;49.602;10.980;2023-11-19T10:20:16;1.10;;;1.10;;
10967;SDS011;5536;49.602;10.980;2023-11-19T10:22:43;0.43;;;0.43;;
10967;SDS011;5536;49.602;10.980;2023-11-19T10:25:22;1.90;;;0.90;;
10967;SDS011;5536;49.602;10.980;2023-11-19T10:27:50;1.23;;;1.13;;
10967;SDS011;5536;49.602;10.980;2023-11-19T10:30:18;0.63;;;0.63;;
10967;SDS011;5536;49.602;10.980;2023-11-19T10:32:47;0.90;;;0.73;;
10967;SDS011;5536;49.602;10.980;2023-11-19T10:35:30;0.87;;;0.83;;
10967;SDS011;5536;49.602;10.980;2023-11-19T10:37:59;0.93;;;0.90;;
10967;SDS011;5536;49.602;10.980;2023-11-19T10:43:10;1.57;;;0.70;;
10967;SDS011;5536;49.602;10.980;2023-11-19T10:45:37;0.73;;;0.73;;
10967;SDS011;5536;49.602;10.980;2023-11-19T10:48:05;1.70;;;0.70;;
10967;SDS011;5536;49.602;10.980;2023-11-19T10:50:34;0.50;;;0.50;;
10967;SDS011;5536;49.602;10.980;2023-11-19T10:53:02;6.20;;;0.90;;
10967;SDS011;5536;49.602;10.980;2023-11-19T10:55:32;0.70;;;0.70;;
10967;SDS011;5536;49.602;10.980;2023-11-19T10:58:06;0.50;;;0.50;;
10967;SDS011;5536;49.602;10.980;2023-11-19T11:00:37;0.67;;;0.67;;
10967;SDS011;5536;49.602;10.980;2023-11-19T11:03:11;1.47;;;0.83;;
10967;SDS011;5536;49.602;10.980;2023-11-19T11:05:43;0.80;;;0.80;;
10967;SDS011;5536;49.602;10.980;2023-11-19T11:08:16;0.50;;;0.50;;
10967;SDS011;5536;49.602;10.980;2023-11-19T11:10:54;0.40;;;0.40;;
10967;SDS011;5536;49.602;10.980;2023-11-19T11:13:24;2.43;;;2.23;;
10967;SDS011;5536;49.602;10.980;2023-11-19T11:15:54;0.60;;;0.60;;
10967;SDS011;5536;49.602;10.980;2023-11-19T11:18:25;7.97;;;1.50;;
10967;SDS011;5536;49.602;10.980;2023-11-19T11:20:54;0.60;;;0.60;;
10967;SDS011;5536;49.602;10.980;2023-11-19T11:23:35;0.47;;;0.47;;
10967;SDS011;5536;49.602;10.980;2023-11-19T11:26:27;0.40;;;0.40;;
10967;SDS011;5536;49.602;10.980;2023-11-19T11:29:09;1.50;;;0.93;;
10967;SDS011;5536;49.602;10.980;2023-11-19T11:31:44;0.40;;;0.40;;
10967;SDS011;5536;49.602;10.980;2023-11-19T11:34:36;1.00;;;0.90;;
10967;SDS011;5536;49.602;10.980;2023-11-19T11:37:24;0.90;;;0.90;;
10967;SDS011;5536;49.602;10.980;2023-11-19T11:40:00;0.50;;;0.50;;
10967;SDS011;5536;49.602;10.980;2023-11-19T11:42:31;1.07;;;0.53;;
10967;SDS011;5536;49.602;10.980;2023-11-19T11:45:03;3.13;;;0.97;;
10967;SDS011;5536;49.602;10.980;2023-11-19T11:50:34;0.40;;;0.40;;
10967;SDS011;5536;49.602;10.980;2023-11-19T11:53:13;0.60;;;0.60;;
10967;SDS011;5536;49.602;10.980;2023-11-19T11:55:52;1.37;;;0.53;;
10967;SDS011;5536;49.602;10.980;2023-11-19T11:58:25;0.60;;;0.60;;
10967;SDS011;5536;49.602;10.980;2023-11-19T12:00:56;0.40;;;0.40;;
10967;SDS011;5536;49.602;10.980;2023-11-19T12:03:26;0.60;;;0.60;;
10967;SDS011;5536;49.602;10.980;2023-11-19T12:05:54;1.67;;;0.57;;
10967;SDS011;5536;49.602;10.980;2023-11-19T12:08:24;2.73;;;0.80;;
10967;SDS011;5536;49.602;10.980;2023-11-19T12:10:53;0.60;;;0.60;;
10967;SDS011;5536;49.602;10.980;2023-11-19T12:16:22;0.53;;;0.53;;
10967;SDS011;5536;49.602;10.980;2023-11-19T12:18:49;0.80;;;0.80;;
10967;SDS011;5536;49.602;10.980;2023-11-19T12:21:29;0.67;;;0.67;;
10967;SDS011;5536;49.602;10.980;2023-11-19T12:23:59;0.70;;;0.70;;
10967;SDS011;5536;49.602;10.980;2023-11-19T12:26:36;2.60;;;0.90;;
10967;SDS011;5536;49.602;10.980;2023-11-19T12:29:04;1.03;;;0.60;;
10967;SDS011;5536;49.602;10.980;2023-11-19T12:31:34;0.87;;;0.70;;
10967;SDS011;5536;49.602;10.980;2023-11-19T12:34:08;0.60;;;0.60;;
10967;SDS011;5536;49.602;10.980;2023-11-19T12:36:37;1.17;;;0.70;;
10967;SDS011;5536;49.602;10.980;2023-11-19T12:39:08;0.50;;;0.50;;
10967;SDS011;5536;49.602;10.980;2023-11-19T12:41:53;0.57;;;0.57;;
10967;SDS011;5536;49.602;10.980;2023-11-19T12:44:20;0.63;;;0.63;;
10967;SDS011;5536;49.602;10.980;2023-11-19T12:47:00;0.43;;;0.43;;
10967;SDS011;5536;49.602;10.980;2023-11-19T12:49:28;2.17;;;0.67;;
10967;SDS011;5536;49.602;10.980;2023-11-19T12:51:55;1.53;;;0.90;;
10967;SDS011;5536;49.602;10.980;2023-11-19T12:54:31;3.93;;;2.50;;
10967;SDS011;5536;49.602;10.980;2023-11-19T12:56:59;1.20;;;1.10;;
10967;SDS011;5536;49.602;10.980;2023-11-19T12:59:27;0.70;;;0.53;;
10967;SDS011;5536;49.602;10.980;2023-11-19T13:01:57;0.67;;;0.67;;
10967;SDS011;5536;49.602;10.980;2023-11-19T13:04:30;2.33;;;0.80;;
10967;SDS011;5536;49.602;10.980;2023-11-19T13:06:58;0.50;;;0.50;;
10967;SDS011;5536;49.602;10.980;2023-11-19T13:09:26;1.70;;;0.83;;
10967;SDS011;5536;49.602;10.980;2023-11-19T13:11:54;0.50;;;0.50;;
10967;SDS011;5536;49.602;10.980;2023-11-19T13:14:23;0.40;;;0.40;;
10967;SDS011;5536;49.602;10.980;2023-11-19T13:17:06;0.60;;;0.60;;
10967;SDS011;5536;49.602;10.980;2023-11-19T13:19:34;0.50;;;0.50;;
10967;SDS011;5536;49.602;10.980;2023-11-19T13:22:01;0.93;;;0.93;;
10967;SDS011;5536;49.602;10.980;2023-11-19T13:24:29;0.80;;;0.80;;
10967;SDS011;5536;49.602;10.980;2023-11-19T13:26:56;0.50;;;0.50;;
10967;SDS011;5536;49.602;10.980;2023-11-19T13:29:24;3.07;;;0.80;;
10967;SDS011;5536;49.602;10.980;2023-11-19T13:31:51;2.60;;;0.70;;
10967;SDS011;5536;49.602;10.980;2023-11-19T13:34:20;0.77;;;0.77;;
10967;SDS011;5536;49.602;10.980;2023-11-19T13:36:47;2.00;;;0.90;;
10967;SDS011;5536;49.602;10.980;2023-11-19T13:39:14;0.67;;;0.60;;
10967;SDS011;5536;49.602;10.980;2023-11-19T13:41:48;0.50;;;0.50;;
10967;SDS011;5536;49.602;10.980;2023-11-19T13:44:16;0.70;;;0.70;;
10967;SDS011;5536;49.602;10.980;2023-11-19T13:46:44;1.50;;;0.60;;
10967;SDS011;5536;49.602;10.980;2023-11-19T13:49:12;0.60;;;0.60;;
10967;SDS011;5536;49.602;10.980;2023-11-19T13:51:40;0.73;;;0.70;;
10967;SDS011;5536;49.602;10.980;2023-11-19T13:54:07;6.30;;;0.60;;
10967;SDS011;5536;49.602;10.980;2023-11-19T13:56:34;0.80;;;0.80;;
10967;SDS011;5536;49.602;10.980;2023-11-19T13:59:01;0.77;;;0.57;;
10967;SDS011;5536;49.602;10.980;2023-11-19T14:01:29;5.93;;;1.00;;
10967;SDS011;5536;49.602;10.980;2023-11-19T14:03:56;0.77;;;0.77;;
10967;SDS011;5536;49.602;10.980;2023-11-19T14:06:23;4.67;;;0.93;;
10967;SDS011;5536;49.602;10.980;2023-11-19T14:08:51;0.40;;;0.40;;
10967;SDS011;5536;49.602;10.980;2023-11-19T14:11:18;0.73;;;0.70;;
10967;SDS011;5536;49.602;10.980;2023-11-19T14:13:45;0.50;;;0.50;;
10967;SDS011;5536;49.602;10.980;2023-11-19T14:16:14;0.53;;;0.53;;
10967;SDS011;5536;49.602;10.980;2023-11-19T14:18:41;0.70;;;0.67;;
10967;SDS011;5536;49.602;10.980;2023-11-19T14:21:08;1.20;;;0.70;;
10967;SDS011;5536;49.602;10.980;2023-11-19T14:23:35;0.90;;;0.90;;
10967;SDS011;5536;49.602;10.980;2023-11-19T14:26:04;0.53;;;0.53;;
10967;SDS011;5536;49.602;10.980;2023-11-19T14:28:31;4.47;;;0.80;;
10967;SDS011;5536;49.602;10.980;2023-11-19T14:30:58;1.77;;;0.60;;
10967;SDS011;5536;49.602;10.980;2023-11-19T14:33:25;1.83;;;0.60;;
10967;SDS011;5536;49.602;10.980;2023-11-19T14:35:52;0.87;;;0.87;;
10967;SDS011;5536;49.602;10.980;2023-11-19T14:38:19;0.67;;;0.60;;
10967;SDS011;5536;49.602;10.980;2023-11-19T14:40:46;2.77;;;1.10;;
10967;SDS011;5536;49.602;10.980;2023-11-19T14:43:15;1.60;;;1.50;;
10967;SDS011;5536;49.602;10.980;2023-11-19T14:45:42;1.70;;;1.30;;
10967;SDS011;5536;49.602;10.980;2023-11-19T14:48:09;0.80;;;0.80;;
10967;SDS011;5536;49.602;10.980;2023-11-19T14:50:36;1.47;;;1.20;;
10967;SDS011;5536;49.602;10.980;2023-11-19T14:53:03;1.23;;;1.13;;
10967;SDS011;5536;49.602;10.980;2023-11-19T14:55:31;0.87;;;0.73;;
10967;SDS011;5536;49.602;10.980;2023-11-19T14:57:59;0.80;;;0.80;;
10967;SDS011;5536;49.602;10.980;2023-11-19T15:00:27;0.60;;;0.60;;
10967;SDS011;5536;49.602;10.980;2023-11-19T15:02:54;0.73;;;0.73;;
10967;SDS011;5536;49.602;10.980;2023-11-19T15:05:22;0.60;;;0.60;;